createdAt,value
2018-04-22T00:04:46.094Z,5.80
2018-04-22T00:09:48.576Z,5.27
2018-04-22T00:14:51.071Z,5.77
2018-04-22T00:19:53.513Z,5.33
2018-04-22T00:24:55.966Z,5.40
2018-04-22T00:29:58.410Z,5.50
2018-04-22T00:35:00.855Z,5.03
2018-04-22T00:40:15.087Z,5.97
2018-04-22T00:45:18.291Z,6.33
2018-04-22T00:50:21.503Z,5.40
2018-04-22T00:55:24.916Z,5.57
2018-04-22T01:00:27.343Z,5.60
2018-04-22T01:05:30.088Z,5.47
2018-04-22T01:10:32.531Z,5.87
2018-04-22T01:15:38.280Z,6.50
2018-04-22T01:26:20.746Z,6.23
2018-04-22T01:31:23.951Z,5.50
2018-04-22T01:36:27.164Z,5.50
2018-04-22T01:41:30.606Z,5.47
2018-04-22T01:46:33.779Z,5.60
2018-04-22T01:51:36.378Z,5.47
2018-04-22T01:56:38.950Z,5.67
2018-04-22T02:01:41.382Z,5.80
2018-04-22T02:07:08.160Z,6.87
2018-04-22T02:12:18.428Z,7.13
2018-04-22T02:17:20.855Z,5.47
2018-04-22T02:22:23.302Z,5.23
2018-04-22T02:27:26.533Z,6.00
2018-04-22T02:32:28.965Z,5.47
2018-04-22T02:37:31.661Z,6.00
2018-04-22T02:42:34.269Z,5.33
2018-04-22T02:47:36.694Z,5.53
2018-04-22T02:52:39.206Z,4.80
2018-04-22T02:57:41.686Z,4.90
2018-04-22T03:02:44.123Z,4.70
2018-04-22T03:07:46.567Z,5.07
2018-04-22T03:18:20.002Z,4.90
2018-04-22T03:23:23.850Z,4.80
2018-04-22T03:28:26.406Z,4.70
2018-04-22T03:33:30.318Z,4.73
2018-04-22T03:38:32.744Z,4.80
2018-04-22T03:43:35.959Z,5.33
2018-04-22T03:48:40.502Z,5.00
2018-04-22T03:53:43.702Z,5.77
2018-04-22T03:58:47.084Z,4.57
2018-04-22T04:03:49.576Z,4.50
2018-04-22T04:08:52.028Z,4.93
2018-04-22T04:13:54.474Z,5.30
2018-04-22T04:19:09.072Z,5.70
2018-04-22T04:30:06.238Z,4.73
2018-04-22T04:35:08.678Z,5.00
2018-04-22T04:40:11.882Z,4.80
2018-04-22T04:45:15.083Z,4.83
2018-04-22T04:50:18.322Z,4.57
2018-04-22T04:55:21.878Z,5.53
2018-04-22T05:00:24.312Z,5.53
2018-04-22T05:05:27.524Z,5.17
2018-04-22T05:10:38.215Z,5.20
2018-04-22T05:15:42.781Z,6.57
2018-04-22T05:20:47.187Z,5.57
2018-04-22T05:26:11.810Z,6.17
2018-04-22T05:31:15.445Z,6.10
2018-04-22T05:36:18.714Z,6.50
2018-04-22T05:41:21.155Z,6.97
2018-04-22T05:46:23.593Z,7.03
2018-04-22T05:51:26.877Z,7.33
2018-04-22T05:56:29.476Z,7.07
2018-04-22T06:01:31.934Z,6.53
2018-04-22T06:06:34.373Z,9.67
2018-04-22T06:11:37.042Z,9.63
2018-04-22T06:16:39.478Z,10.40
2018-04-22T06:21:41.959Z,11.20
2018-04-22T06:26:44.416Z,11.60
2018-04-22T06:31:46.875Z,12.70
2018-04-22T06:36:50.205Z,12.07
2018-04-22T06:41:52.697Z,12.90
2018-04-22T06:46:55.146Z,12.93
2018-04-22T06:51:57.617Z,12.63
2018-04-22T06:57:00.080Z,13.13
2018-04-22T07:02:02.529Z,13.53
2018-04-22T07:07:05.060Z,14.77
2018-04-22T07:12:07.546Z,14.87
2018-04-22T07:17:10.756Z,14.47
2018-04-22T07:22:13.247Z,15.27
2018-04-22T07:27:16.573Z,15.83
2018-04-22T07:37:46.853Z,16.17
2018-04-22T07:42:49.301Z,18.30
2018-04-22T07:47:51.752Z,15.97
2018-04-22T07:52:54.207Z,17.37
2018-04-22T07:57:57.481Z,16.80
2018-04-22T08:03:21.194Z,18.07
2018-04-22T08:08:23.877Z,17.33
2018-04-22T08:13:27.053Z,17.03
2018-04-22T08:18:29.654Z,16.07
2018-04-22T08:23:32.164Z,16.27
2018-04-22T08:28:34.608Z,16.20
2018-04-22T08:33:37.104Z,16.40
2018-04-22T08:38:39.551Z,16.03
2018-04-22T08:43:42.378Z,16.13
2018-04-22T08:48:44.902Z,16.43
2018-04-22T08:53:47.349Z,15.47
2018-04-22T08:58:50.093Z,17.20
2018-04-22T09:14:24.375Z,16.00
2018-04-22T09:19:27.604Z,16.53
2018-04-22T09:24:30.928Z,15.07
2018-04-22T09:29:40.808Z,15.27
2018-04-22T09:34:43.445Z,13.60
2018-04-22T09:39:46.871Z,16.33
2018-04-22T09:44:59.201Z,15.07
2018-04-22T09:50:02.481Z,15.87
2018-04-22T09:55:04.945Z,16.27
2018-04-22T10:00:22.629Z,16.43
2018-04-22T10:05:25.076Z,14.97
2018-04-22T10:10:43.352Z,16.53
2018-04-22T10:15:45.797Z,15.90
2018-04-22T10:20:50.070Z,12.33
2018-04-22T10:25:52.531Z,15.43
2018-04-22T10:30:56.736Z,13.50
2018-04-22T10:35:59.184Z,15.90
2018-04-22T10:41:01.635Z,14.93
2018-04-22T10:46:04.095Z,14.00
2018-04-22T10:51:06.550Z,14.23
2018-04-22T10:56:08.998Z,12.63
2018-04-22T11:01:11.454Z,14.43
2018-04-22T11:06:20.227Z,15.23
2018-04-22T11:11:22.777Z,10.73
2018-04-22T11:16:25.220Z,9.97
2018-04-22T11:21:41.682Z,10.60
2018-04-22T11:26:44.310Z,10.60
2018-04-22T11:31:47.656Z,11.13
2018-04-22T11:36:57.031Z,9.20
2018-04-22T11:42:00.297Z,8.67
2018-04-22T11:47:03.020Z,8.27
2018-04-22T11:52:06.380Z,8.17
2018-04-22T11:57:08.822Z,6.80
2018-04-22T12:02:11.351Z,5.07
2018-04-22T12:07:14.602Z,5.93
2018-04-22T12:12:17.445Z,6.07
2018-04-22T12:17:20.659Z,5.87
2018-04-22T12:22:24.338Z,4.30
2018-04-22T12:27:26.809Z,3.90
2018-04-22T12:32:29.321Z,3.70
2018-04-22T12:37:31.776Z,4.33
2018-04-22T12:42:34.258Z,3.80
2018-04-22T12:47:37.547Z,4.03
2018-04-22T12:52:39.987Z,3.80
2018-04-22T12:57:51.699Z,5.20
2018-04-22T13:02:54.445Z,4.73
2018-04-22T13:07:56.890Z,5.33
2018-04-22T13:12:59.343Z,4.77
2018-04-22T13:18:02.557Z,4.93
2018-04-22T13:23:05.844Z,5.30
2018-04-22T13:28:08.291Z,4.63
2018-04-22T13:33:10.749Z,4.77
2018-04-22T13:38:14.408Z,5.10
2018-04-22T13:43:17.005Z,4.00
2018-04-22T13:48:22.069Z,4.70
2018-04-22T13:53:43.363Z,4.23
2018-04-22T13:58:45.838Z,4.33
2018-04-22T14:03:48.286Z,4.30
2018-04-22T14:08:51.450Z,3.80
2018-04-22T14:13:54.735Z,4.27
2018-04-22T14:18:58.075Z,4.00
2018-04-22T14:24:01.299Z,4.00
2018-04-22T14:29:04.845Z,4.13
2018-04-22T14:34:07.339Z,4.30
2018-04-22T14:39:09.862Z,3.43
2018-04-22T14:44:24.193Z,3.60
2018-04-22T14:49:26.654Z,4.27
2018-04-22T14:54:29.906Z,3.80
2018-04-22T14:59:32.495Z,4.10
2018-04-22T15:04:34.976Z,3.73
2018-04-22T15:09:37.419Z,4.90
2018-04-22T15:14:39.891Z,4.97
2018-04-22T15:19:42.400Z,6.73
2018-04-22T15:24:49.965Z,6.93
2018-04-22T15:29:52.540Z,6.90
2018-04-22T15:34:56.066Z,5.97
2018-04-22T15:39:58.564Z,5.87
2018-04-22T15:45:08.981Z,5.67
2018-04-22T15:50:11.472Z,6.47
2018-04-22T15:55:13.947Z,8.73
2018-04-22T16:00:16.646Z,6.33
2018-04-22T16:05:19.422Z,6.13
2018-04-22T16:10:22.716Z,3.00
2018-04-22T16:15:25.197Z,4.13
2018-04-22T16:20:28.377Z,3.83
2018-04-22T16:25:31.351Z,4.30
2018-04-22T16:30:47.203Z,3.17
2018-04-22T16:35:49.637Z,3.50
2018-04-22T16:40:52.865Z,3.90
2018-04-22T16:45:55.333Z,3.77
2018-04-22T16:50:58.578Z,3.57
2018-04-22T16:56:01.039Z,3.70
2018-04-22T17:01:04.294Z,4.23
2018-04-22T17:06:06.757Z,4.23
2018-04-22T17:11:10.113Z,3.90
2018-04-22T17:16:12.622Z,4.50
2018-04-22T17:21:23.666Z,4.17
2018-04-22T17:26:26.122Z,4.07
2018-04-22T17:36:59.762Z,4.70
2018-04-22T17:42:06.174Z,4.47
2018-04-22T17:47:09.481Z,4.73
2018-04-22T17:52:11.953Z,5.17
2018-04-22T17:57:14.397Z,5.47
2018-04-22T18:02:16.905Z,4.97
2018-04-22T18:07:20.154Z,5.90
2018-04-22T18:12:22.595Z,5.90
2018-04-22T18:17:25.178Z,4.93
2018-04-22T18:22:28.398Z,4.93
2018-04-22T18:27:30.853Z,4.93
2018-04-22T18:32:34.395Z,4.33
2018-04-22T18:37:37.629Z,4.67
2018-04-22T18:42:40.089Z,4.97
2018-04-22T18:47:43.308Z,4.83
2018-04-22T18:52:48.793Z,5.60
2018-04-22T18:57:51.258Z,5.03
2018-04-22T19:02:55.313Z,6.03
2018-04-22T19:08:01.605Z,18.17
2018-04-22T19:13:04.778Z,13.50
2018-04-22T19:18:10.133Z,6.87
2018-04-22T19:23:12.604Z,12.13
2018-04-22T19:28:15.041Z,3.23
2018-04-22T19:33:17.485Z,3.50
2018-04-22T19:38:23.690Z,4.40
2018-04-22T19:43:26.944Z,4.50
2018-04-22T19:48:29.462Z,4.60
2018-04-22T19:59:04.495Z,4.93
2018-04-22T20:04:07.794Z,5.30
2018-04-22T20:09:10.354Z,5.03
2018-04-22T20:14:33.989Z,6.17
2018-04-22T20:19:37.206Z,5.83
2018-04-22T20:24:39.666Z,5.40
2018-04-22T20:29:42.101Z,6.03
2018-04-22T20:34:44.551Z,6.00
2018-04-22T20:39:47.002Z,5.43
2018-04-22T20:44:49.600Z,5.43
2018-04-22T20:49:52.034Z,6.13
2018-04-22T20:54:54.499Z,6.57
2018-04-22T20:59:57.024Z,7.10
2018-04-22T21:10:27.711Z,10.27
2018-04-22T21:15:35.199Z,11.33
2018-04-22T21:20:50.965Z,11.07
2018-04-22T21:25:53.499Z,9.57
2018-04-22T21:30:55.941Z,10.63
2018-04-22T21:35:58.399Z,11.77
2018-04-22T21:41:00.950Z,10.63
2018-04-22T21:46:03.409Z,9.83
2018-04-22T21:51:06.860Z,9.83
2018-04-22T21:56:10.174Z,10.53
2018-04-22T22:01:12.655Z,10.73
2018-04-22T22:06:15.102Z,10.93
2018-04-22T22:11:17.557Z,9.83
2018-04-22T22:16:20.017Z,10.33
2018-04-22T22:21:22.475Z,9.97
2018-04-22T22:26:24.990Z,10.70
2018-04-22T22:31:28.221Z,11.50
2018-04-22T22:36:30.741Z,10.80
2018-04-22T22:41:38.581Z,10.37
2018-04-22T22:46:41.045Z,10.33
2018-04-22T22:51:43.501Z,10.37
2018-04-22T22:56:58.401Z,9.90
2018-04-22T23:02:01.607Z,10.63
2018-04-22T23:07:04.082Z,11.50
2018-04-22T23:12:07.406Z,11.10
2018-04-22T23:17:09.864Z,10.13
2018-04-22T23:22:12.314Z,9.87
2018-04-22T23:27:14.765Z,11.17
2018-04-22T23:32:17.992Z,11.60
2018-04-22T23:37:20.478Z,11.73
2018-04-22T23:42:23.700Z,11.70
2018-04-22T23:47:26.230Z,12.90
2018-04-22T23:52:34.843Z,11.90
2018-04-22T23:57:37.350Z,11.93
